Terminal Aerodrome Forecast
Issued by NWS

Home | Current Version | Previous Version | Text Only | Print | Product List | Glossary On
Versions: 1 2 3 4 5 6 7 8 9 10 11 12 13 14 15 16 17 18 19
000
FTUS44 KBMX 241140
TAFANB
TAF
KANB 241140Z 2412/2512 23005KT P6SM OVC007
      TEMPO 2412/2415 -DZ
     FM241500 27010KT P6SM OVC015
     FM241700 27011KT P6SM OVC025
     FM241900 26012G17KT P6SM VCSH OVC050
     FM250100 28009KT P6SM BKN060
     FM250500 26006KT P6SM OVC015=

USA.gov is the U.S. government's official web portal to all federal, state and local government web resources and services.